sensor_id;sensor_type;location;lat;lon;timestamp;pressure;altitude;pressure_sealevel;temperature;humidity
50430;BME280;36359;41.556;-8.418;2024-03-23T00:53:47;62522.31;;;19.20;70.74
50430;BME280;36359;41.556;-8.418;2024-03-23T00:56:13;62512.63;;;19.11;70.79
50430;BME280;36359;41.556;-8.418;2024-03-23T00:58:38;62504.63;;;19.01;71.45
50430;BME280;36359;41.556;-8.418;2024-03-23T01:01:04;62494.88;;;18.97;71.94
50430;BME280;36359;41.556;-8.418;2024-03-23T01:03:30;62483.06;;;18.86;72.73
50430;BME280;36359;41.556;-8.418;2024-03-23T01:06:00;62492.78;;;18.92;73.42
50430;BME280;36359;41.556;-8.418;2024-03-23T01:08:26;62485.25;;;18.85;73.86
50430;BME280;36359;41.556;-8.418;2024-03-23T01:10:59;62487.97;;;18.85;74.26
50430;BME280;36359;41.556;-8.418;2024-03-23T01:13:25;62473.47;;;18.71;74.04
50430;BME280;36359;41.556;-8.418;2024-03-23T01:15:51;62466.97;;;18.68;74.13
50430;BME280;36359;41.556;-8.418;2024-03-23T01:18:18;62469.69;;;18.68;75.05
50430;BME280;36359;41.556;-8.418;2024-03-23T01:20:44;62465.94;;;18.64;73.89
50430;BME280;36359;41.556;-8.418;2024-03-23T01:23:10;62453.06;;;18.52;74.80
50430;BME280;36359;41.556;-8.418;2024-03-23T01:25:36;62457.88;;;18.59;75.24
50430;BME280;36359;41.556;-8.418;2024-03-23T01:28:02;62471.81;;;18.72;75.19
50430;BME280;36359;41.556;-8.418;2024-03-23T01:30:28;62478.91;;;18.74;74.71
50430;BME280;36359;41.556;-8.418;2024-03-23T01:32:54;62464.31;;;18.65;74.57
50430;BME280;36359;41.556;-8.418;2024-03-23T01:35:19;62467.56;;;18.66;74.96
50430;BME280;36359;41.556;-8.418;2024-03-23T01:37:45;62470.78;;;18.69;74.26
50430;BME280;36359;41.556;-8.418;2024-03-23T01:40:11;62466.44;;;18.67;74.47
50430;BME280;36359;41.556;-8.418;2024-03-23T01:42:39;62464.31;;;18.65;74.85
50430;BME280;36359;41.556;-8.418;2024-03-23T01:45:09;62452.44;;;18.56;75.54
50430;BME280;36359;41.556;-8.418;2024-03-23T01:47:37;62454.69;;;18.53;75.70
50430;BME280;36359;41.556;-8.418;2024-03-23T01:50:04;62457.81;;;18.61;78.03
50430;BME280;36359;41.556;-8.418;2024-03-23T01:52:30;62454.09;;;18.55;74.78
50430;BME280;36359;41.556;-8.418;2024-03-23T01:54:56;62457.94;;;18.54;74.54
50430;BME280;36359;41.556;-8.418;2024-03-23T01:57:21;62453.56;;;18.55;75.35
50430;BME280;36359;41.556;-8.418;2024-03-23T01:59:47;62442.28;;;18.44;75.72
50430;BME280;36359;41.556;-8.418;2024-03-23T02:02:21;62449.28;;;18.51;76.30
50430;BME280;36359;41.556;-8.418;2024-03-23T02:04:49;62445.56;;;18.45;76.45
50430;BME280;36359;41.556;-8.418;2024-03-23T02:07:15;62437.97;;;18.43;76.09
50430;BME280;36359;41.556;-8.418;2024-03-23T02:09:40;62432.06;;;18.37;76.20
50430;BME280;36359;41.556;-8.418;2024-03-23T02:12:09;62429.94;;;18.32;76.47
50430;BME280;36359;41.556;-8.418;2024-03-23T02:14:35;62428.88;;;18.31;76.68
50430;BME280;36359;41.556;-8.418;2024-03-23T02:17:00;62429.38;;;18.34;77.35
50430;BME280;36359;41.556;-8.418;2024-03-23T02:19:26;62436.97;;;18.36;76.90
50430;BME280;36359;41.556;-8.418;2024-03-23T02:21:52;62435.31;;;18.37;76.91
50430;BME280;36359;41.556;-8.418;2024-03-23T02:24:17;62426.16;;;18.31;76.52
50430;BME280;36359;41.556;-8.418;2024-03-23T02:26:43;62426.16;;;18.31;77.17
50430;BME280;36359;41.556;-8.418;2024-03-23T02:29:09;62425.66;;;18.28;76.81
50430;BME280;36359;41.556;-8.418;2024-03-23T02:31:35;62433.75;;;18.33;77.53
50430;BME280;36359;41.556;-8.418;2024-03-23T02:34:01;62424.56;;;18.27;77.38
50430;BME280;36359;41.556;-8.418;2024-03-23T02:36:27;62439.16;;;18.36;77.28
50430;BME280;36359;41.556;-8.418;2024-03-23T02:38:53;62437.50;;;18.37;76.80
50430;BME280;36359;41.556;-8.418;2024-03-23T02:41:18;62439.13;;;18.38;75.91
50430;BME280;36359;41.556;-8.418;2024-03-23T02:43:49;62436.94;;;18.39;75.59
50430;BME280;36359;41.556;-8.418;2024-03-23T02:46:15;62433.72;;;18.36;76.16
50430;BME280;36359;41.556;-8.418;2024-03-23T02:48:41;62433.72;;;18.36;75.90
50430;BME280;36359;41.556;-8.418;2024-03-23T02:51:07;62436.94;;;18.39;75.91
50430;BME280;36359;41.556;-8.418;2024-03-23T02:53:33;62427.78;;;18.30;76.12
50430;BME280;36359;41.556;-8.418;2024-03-23T02:55:59;62436.97;;;18.36;76.50
50430;BME280;36359;41.556;-8.418;2024-03-23T02:58:25;62421.94;;;18.22;76.64
50430;BME280;36359;41.556;-8.418;2024-03-23T03:00:50;62421.84;;;18.27;76.80
50430;BME280;36359;41.556;-8.418;2024-03-23T03:03:16;62416.53;;;18.20;77.36
50430;BME280;36359;41.556;-8.418;2024-03-23T03:05:41;62416.03;;;18.16;78.08
50430;BME280;36359;41.556;-8.418;2024-03-23T03:08:07;62406.88;;;18.10;77.51
50430;BME280;36359;41.556;-8.418;2024-03-23T03:10:33;62405.25;;;18.09;77.58
50430;BME280;36359;41.556;-8.418;2024-03-23T03:13:00;62409.59;;;18.10;78.81
50430;BME280;36359;41.556;-8.418;2024-03-23T03:15:26;62400.97;;;18.05;79.92
50430;BME280;36359;41.556;-8.418;2024-03-23T03:17:52;62390.19;;;17.97;79.16
50430;BME280;36359;41.556;-8.418;2024-03-23T03:20:17;62392.38;;;17.97;79.28
50430;BME280;36359;41.556;-8.418;2024-03-23T03:22:43;62394.03;;;17.96;79.05
50430;BME280;36359;41.556;-8.418;2024-03-23T03:25:09;62393.50;;;17.95;79.17
50430;BME280;36359;41.556;-8.418;2024-03-23T03:27:35;62383.84;;;17.86;79.79
50430;BME280;36359;41.556;-8.418;2024-03-23T03:30:01;62383.75;;;17.91;79.95
50430;BME280;36359;41.556;-8.418;2024-03-23T03:32:30;62385.94;;;17.90;79.55
50430;BME280;36359;41.556;-8.418;2024-03-23T03:34:56;62391.88;;;17.93;79.50
50430;BME280;36359;41.556;-8.418;2024-03-23T03:37:22;62377.88;;;17.85;79.72
50430;BME280;36359;41.556;-8.418;2024-03-23T03:39:47;62383.25;;;17.88;79.98
50430;BME280;36359;41.556;-8.418;2024-03-23T03:42:15;62381.16;;;17.83;80.38
50430;BME280;36359;41.556;-8.418;2024-03-23T03:44:40;62381.16;;;17.83;80.21
50430;BME280;36359;41.556;-8.418;2024-03-23T03:47:06;62380.63;;;17.83;80.66
50430;BME280;36359;41.556;-8.418;2024-03-23T03:49:33;62381.16;;;17.83;80.39
50430;BME280;36359;41.556;-8.418;2024-03-23T03:52:03;62373.06;;;17.78;80.54
50430;BME280;36359;41.556;-8.418;2024-03-23T03:54:28;62374.69;;;17.77;80.51
50430;BME280;36359;41.556;-8.418;2024-03-23T03:56:54;62374.13;;;17.79;80.07
50430;BME280;36359;41.556;-8.418;2024-03-23T03:59:20;62385.97;;;17.88;79.91
50430;BME280;36359;41.556;-8.418;2024-03-23T04:01:46;62390.81;;;17.92;79.29
50430;BME280;36359;41.556;-8.418;2024-03-23T04:04:11;62384.31;;;17.91;79.54
50430;BME280;36359;41.556;-8.418;2024-03-23T04:06:37;62381.13;;;17.86;80.22
50430;BME280;36359;41.556;-8.418;2024-03-23T04:09:03;62384.38;;;17.86;80.47
50430;BME280;36359;41.556;-8.418;2024-03-23T04:11:29;62397.78;;;17.99;79.35
50430;BME280;36359;41.556;-8.418;2024-03-23T04:13:54;62393.47;;;17.98;78.43
50430;BME280;36359;41.556;-8.418;2024-03-23T04:16:33;62388.13;;;17.90;78.93
50430;BME280;36359;41.556;-8.418;2024-03-23T04:19:00;62374.13;;;17.79;79.39
50430;BME280;36359;41.556;-8.418;2024-03-23T04:21:25;62369.31;;;17.72;80.85
50430;BME280;36359;41.556;-8.418;2024-03-23T04:23:51;62349.94;;;17.59;81.67
50430;BME280;36359;41.556;-8.418;2024-03-23T04:26:17;62350.53;;;17.57;80.36
50430;BME280;36359;41.556;-8.418;2024-03-23T04:28:43;62362.34;;;17.65;80.29
50430;BME280;36359;41.556;-8.418;2024-03-23T04:31:09;62363.91;;;17.69;81.45
50430;BME280;36359;41.556;-8.418;2024-03-23T04:33:35;62355.31;;;17.64;79.57
50430;BME280;36359;41.556;-8.418;2024-03-23T04:36:01;62367.16;;;17.70;79.49
50430;BME280;36359;41.556;-8.418;2024-03-23T04:38:26;62358.59;;;17.62;79.92
50430;BME280;36359;41.556;-8.418;2024-03-23T04:40:59;62355.84;;;17.64;79.57
50430;BME280;36359;41.556;-8.418;2024-03-23T04:43:28;62358.09;;;17.59;79.23
50430;BME280;36359;41.556;-8.418;2024-03-23T04:45:54;62361.28;;;17.64;79.21
50430;BME280;36359;41.556;-8.418;2024-03-23T04:48:23;62363.38;;;17.69;79.18
50430;BME280;36359;41.556;-8.418;2024-03-23T04:50:49;62358.06;;;17.61;79.82
50430;BME280;36359;41.556;-8.418;2024-03-23T04:53:16;62345.16;;;17.52;81.34
50430;BME280;36359;41.556;-8.418;2024-03-23T04:55:42;62353.78;;;17.57;79.89
50430;BME280;36359;41.556;-8.418;2024-03-23T04:58:08;62359.09;;;17.65;79.22
50430;BME280;36359;41.556;-8.418;2024-03-23T05:00:34;62375.22;;;17.80;79.58
50430;BME280;36359;41.556;-8.418;2024-03-23T05:03:00;62368.25;;;17.71;77.09
50430;BME280;36359;41.556;-8.418;2024-03-23T05:05:25;62362.81;;;17.71;78.43
50430;BME280;36359;41.556;-8.418;2024-03-23T05:07:51;62352.66;;;17.59;78.61
50430;BME280;36359;41.556;-8.418;2024-03-23T05:10:17;62358.03;;;17.64;77.99
50430;BME280;36359;41.556;-8.418;2024-03-23T05:12:43;62375.78;;;17.78;81.89
50430;BME280;36359;41.556;-8.418;2024-03-23T05:15:10;62363.94;;;17.67;79.08
50430;BME280;36359;41.556;-8.418;2024-03-23T05:17:36;62348.38;;;17.55;79.19
50430;BME280;36359;41.556;-8.418;2024-03-23T05:20:03;62343.59;;;17.47;79.06
50430;BME280;36359;41.556;-8.418;2024-03-23T05:25:02;62336.56;;;17.43;79.54
50430;BME280;36359;41.556;-8.418;2024-03-23T05:27:32;62336.06;;;17.40;79.78
50430;BME280;36359;41.556;-8.418;2024-03-23T05:29:58;62337.16;;;17.41;80.88
50430;BME280;36359;41.556;-8.418;2024-03-23T05:32:24;62331.72;;;17.41;79.55
50430;BME280;36359;41.556;-8.418;2024-03-23T05:34:50;62322.63;;;17.30;79.51
50430;BME280;36359;41.556;-8.418;2024-03-23T05:37:21;62329.06;;;17.36;78.43
50430;BME280;36359;41.556;-8.418;2024-03-23T05:39:47;62332.28;;;17.39;78.08
50430;BME280;36359;41.556;-8.418;2024-03-23T05:42:18;62321.50;;;17.32;78.83
50430;BME280;36359;41.556;-8.418;2024-03-23T05:44:47;62325.88;;;17.31;77.06
50430;BME280;36359;41.556;-8.418;2024-03-23T05:47:13;62338.22;;;17.42;78.50
50430;BME280;36359;41.556;-8.418;2024-03-23T05:49:42;62334.44;;;17.41;76.51
50430;BME280;36359;41.556;-8.418;2024-03-23T05:52:09;62339.22;;;17.48;76.67
50430;BME280;36359;41.556;-8.418;2024-03-23T05:54:35;62348.94;;;17.53;77.75
50430;BME280;36359;41.556;-8.418;2024-03-23T05:57:01;62346.22;;;17.53;76.53
50430;BME280;36359;41.556;-8.418;2024-03-23T05:59:27;62348.38;;;17.55;77.70
50430;BME280;36359;41.556;-8.418;2024-03-23T06:01:53;62346.75;;;17.53;77.09
50430;BME280;36359;41.556;-8.418;2024-03-23T06:04:19;62349.97;;;17.56;78.67
50430;BME280;36359;41.556;-8.418;2024-03-23T06:06:45;62344.09;;;17.51;76.71
50430;BME280;36359;41.556;-8.418;2024-03-23T06:09:11;62340.38;;;17.44;77.22
50430;BME280;36359;41.556;-8.418;2024-03-23T06:11:37;62339.28;;;17.43;76.54
50430;BME280;36359;41.556;-8.418;2024-03-23T06:14:02;62343.56;;;17.50;76.80
50430;BME280;36359;41.556;-8.418;2024-03-23T06:16:29;62337.59;;;17.47;77.15
50430;BME280;36359;41.556;-8.418;2024-03-23T06:18:56;62332.84;;;17.37;77.26
50430;BME280;36359;41.556;-8.418;2024-03-23T06:21:22;62337.16;;;17.41;78.21
50430;BME280;36359;41.556;-8.418;2024-03-23T06:23:51;62348.94;;;17.53;81.55
50430;BME280;36359;41.556;-8.418;2024-03-23T06:26:18;62338.22;;;17.42;76.68
50430;BME280;36359;41.556;-8.418;2024-03-23T06:28:45;62332.28;;;17.39;76.36
50430;BME280;36359;41.556;-8.418;2024-03-23T06:31:11;62319.44;;;17.24;76.40
50430;BME280;36359;41.556;-8.418;2024-03-23T06:33:37;62308.19;;;17.14;76.93
50430;BME280;36359;41.556;-8.418;2024-03-23T06:36:06;62316.19;;;17.24;76.78
50430;BME280;36359;41.556;-8.418;2024-03-23T06:38:32;62317.78;;;17.25;76.38
50430;BME280;36359;41.556;-8.418;2024-03-23T06:40:57;62322.13;;;17.27;77.13
50430;BME280;36359;41.556;-8.418;2024-03-23T06:43:23;62312.47;;;17.18;76.03
50430;BME280;36359;41.556;-8.418;2024-03-23T06:45:55;62301.19;;;17.10;77.19
50430;BME280;36359;41.556;-8.418;2024-03-23T06:48:21;62306.53;;;17.15;77.08
50430;BME280;36359;41.556;-8.418;2024-03-23T06:50:47;62309.25;;;17.15;77.25
50430;BME280;36359;41.556;-8.418;2024-03-23T06:53:14;62308.72;;;17.14;76.70
50430;BME280;36359;41.556;-8.418;2024-03-23T06:55:40;62299.56;;;17.08;77.26
50430;BME280;36359;41.556;-8.418;2024-03-23T06:58:06;62309.19;;;17.20;77.26
50430;BME280;36359;41.556;-8.418;2024-03-23T07:00:32;62321.59;;;17.27;76.40
50430;BME280;36359;41.556;-8.418;2024-03-23T07:02:59;62314.53;;;17.25;77.30
50430;BME280;36359;41.556;-8.418;2024-03-23T07:05:25;62331.22;;;17.38;77.83
50430;BME280;36359;41.556;-8.418;2024-03-23T07:07:50;62321.03;;;17.26;76.71
50430;BME280;36359;41.556;-8.418;2024-03-23T07:10:16;62328.63;;;17.28;78.04
50430;BME280;36359;41.556;-8.418;2024-03-23T07:12:43;62326.41;;;17.31;77.76
50430;BME280;36359;41.556;-8.418;2024-03-23T07:15:11;62325.25;;;17.35;76.93
50430;BME280;36359;41.556;-8.418;2024-03-23T07:17:37;62324.75;;;17.32;77.64
50430;BME280;36359;41.556;-8.418;2024-03-23T07:20:03;62324.72;;;17.35;78.32
50430;BME280;36359;41.556;-8.418;2024-03-23T07:22:32;62347.84;;;17.54;83.84
50430;BME280;36359;41.556;-8.418;2024-03-23T07:25:01;62339.78;;;17.46;77.00
50430;BME280;36359;41.556;-8.418;2024-03-23T07:27:27;62353.72;;;17.60;77.16
50430;BME280;36359;41.556;-8.418;2024-03-23T07:29:52;62365.03;;;17.68;77.82
50430;BME280;36359;41.556;-8.418;2024-03-23T07:32:19;62375.78;;;17.78;79.19
50430;BME280;36359;41.556;-8.418;2024-03-23T07:34:44;62366.06;;;17.71;76.48
50430;BME280;36359;41.556;-8.418;2024-03-23T07:37:10;62344.63;;;17.51;76.93
50430;BME280;36359;41.556;-8.418;2024-03-23T07:39:36;62318.91;;;17.24;78.71
50430;BME280;36359;41.556;-8.418;2024-03-23T07:42:02;62333.38;;;17.38;78.15
50430;BME280;36359;41.556;-8.418;2024-03-23T07:44:28;62355.38;;;17.59;77.88
50430;BME280;36359;41.556;-8.418;2024-03-23T07:46:54;62352.19;;;17.53;76.24
50430;BME280;36359;41.556;-8.418;2024-03-23T07:49:19;62342.47;;;17.49;75.68
50430;BME280;36359;41.556;-8.418;2024-03-23T07:51:45;62346.25;;;17.50;76.58
50430;BME280;36359;41.556;-8.418;2024-03-23T07:54:11;62328.56;;;17.33;78.10
50430;BME280;36359;41.556;-8.418;2024-03-23T07:56:37;62334.44;;;17.41;79.74
50430;BME280;36359;41.556;-8.418;2024-03-23T07:59:02;62295.31;;;17.01;79.39
50430;BME280;36359;41.556;-8.418;2024-03-23T08:01:31;62304.94;;;17.13;79.45
50430;BME280;36359;41.556;-8.418;2024-03-23T08:03:57;62327.47;;;17.32;79.58
50430;BME280;36359;41.556;-8.418;2024-03-23T08:06:22;62311.91;;;17.20;79.89
50430;BME280;36359;41.556;-8.418;2024-03-23T08:08:53;62299.53;;;17.11;79.11
50430;BME280;36359;41.556;-8.418;2024-03-23T08:11:26;62319.41;;;17.27;80.38
50430;BME280;36359;41.556;-8.418;2024-03-23T08:13:52;62299.59;;;17.06;80.88
50430;BME280;36359;41.556;-8.418;2024-03-23T08:16:18;62299.59;;;17.06;80.28
50430;BME280;36359;41.556;-8.418;2024-03-23T08:18:44;62284.56;;;16.94;82.25
50430;BME280;36359;41.556;-8.418;2024-03-23T08:21:10;62330.16;;;17.35;82.96
50430;BME280;36359;41.556;-8.418;2024-03-23T08:26:10;62357.53;;;17.61;79.58
50430;BME280;36359;41.556;-8.418;2024-03-23T08:28:37;62374.69;;;17.77;78.28
50430;BME280;36359;41.556;-8.418;2024-03-23T08:31:11;62380.00;;;17.87;77.20
50430;BME280;36359;41.556;-8.418;2024-03-23T08:33:37;62361.78;;;17.67;78.33
50430;BME280;36359;41.556;-8.418;2024-03-23T08:36:05;62347.25;;;17.56;79.74
50430;BME280;36359;41.556;-8.418;2024-03-23T08:38:31;62337.16;;;17.41;78.92
50430;BME280;36359;41.556;-8.418;2024-03-23T08:41:02;62372.53;;;17.75;79.78
50430;BME280;36359;41.556;-8.418;2024-03-23T08:43:28;62379.00;;;17.81;78.37
50430;BME280;36359;41.556;-8.418;2024-03-23T08:46:07;62397.25;;;17.99;78.15
50430;BME280;36359;41.556;-8.418;2024-03-23T08:48:38;62384.88;;;17.89;80.29
50430;BME280;36359;41.556;-8.418;2024-03-23T08:51:06;62381.66;;;17.86;78.85
50430;BME280;36359;41.556;-8.418;2024-03-23T08:53:32;62393.47;;;17.98;78.89
50430;BME280;36359;41.556;-8.418;2024-03-23T08:55:59;62438.53;;;18.41;81.55
50430;BME280;36359;41.556;-8.418;2024-03-23T08:58:27;62450.91;;;18.50;76.42
50430;BME280;36359;41.556;-8.418;2024-03-23T09:00:54;62442.34;;;18.42;77.31
50430;BME280;36359;41.556;-8.418;2024-03-23T09:03:24;62458.44;;;18.57;77.92
50430;BME280;36359;41.556;-8.418;2024-03-23T09:05:51;62485.75;;;18.88;79.84
50430;BME280;36359;41.556;-8.418;2024-03-23T09:08:17;62519.19;;;19.12;77.32
50430;BME280;36359;41.556;-8.418;2024-03-23T09:10:43;62549.69;;;19.46;67.57
50430;BME280;36359;41.556;-8.418;2024-03-23T09:13:09;62578.25;;;19.71;65.82
50430;BME280;36359;41.556;-8.418;2024-03-23T09:15:37;62591.06;;;19.88;65.19
50430;BME280;36359;41.556;-8.418;2024-03-23T09:18:06;62607.22;;;20.01;63.85
50430;BME280;36359;41.556;-8.418;2024-03-23T09:20:32;62624.38;;;20.20;61.92
50430;BME280;36359;41.556;-8.418;2024-03-23T09:22:58;62637.34;;;20.30;61.32
50430;BME280;36359;41.556;-8.418;2024-03-23T09:25:24;62649.66;;;20.44;59.96
50430;BME280;36359;41.556;-8.418;2024-03-23T09:27:51;62654.50;;;20.49;59.96
50430;BME280;36359;41.556;-8.418;2024-03-23T09:30:17;62671.28;;;20.59;59.68
50430;BME280;36359;41.556;-8.418;2024-03-23T09:32:44;62668.00;;;20.59;61.04
50430;BME280;36359;41.556;-8.418;2024-03-23T09:35:10;62677.66;;;20.71;60.35
50430;BME280;36359;41.556;-8.418;2024-03-23T09:37:36;62686.34;;;20.74;58.78
50430;BME280;36359;41.556;-8.418;2024-03-23T09:40:02;62686.28;;;20.76;60.01
50430;BME280;36359;41.556;-8.418;2024-03-23T09:42:28;62683.00;;;20.76;59.65
50430;BME280;36359;41.556;-8.418;2024-03-23T09:44:57;62693.78;;;20.86;58.99
50430;BME280;36359;41.556;-8.418;2024-03-23T09:47:24;62699.69;;;20.92;59.64
50430;BME280;36359;41.556;-8.418;2024-03-23T09:49:50;62705.66;;;20.95;58.81
50430;BME280;36359;41.556;-8.418;2024-03-23T09:52:17;62711.53;;;21.03;57.88
50430;BME280;36359;41.556;-8.418;2024-03-23T09:54:43;62722.31;;;21.10;57.83
50430;BME280;36359;41.556;-8.418;2024-03-23T09:57:08;62734.13;;;21.24;56.95
50430;BME280;36359;41.556;-8.418;2024-03-23T09:59:34;62742.19;;;21.32;57.13
50430;BME280;36359;41.556;-8.418;2024-03-23T10:02:01;62748.66;;;21.38;57.25
50430;BME280;36359;41.556;-8.418;2024-03-23T10:04:42;62760.00;;;21.46;56.93
50430;BME280;36359;41.556;-8.418;2024-03-23T10:07:28;62758.84;;;21.50;57.00
50430;BME280;36359;41.556;-8.418;2024-03-23T10:09:56;62764.81;;;21.53;57.71
50430;BME280;36359;41.556;-8.418;2024-03-23T10:12:23;62770.75;;;21.59;56.40
50430;BME280;36359;41.556;-8.418;2024-03-23T10:14:49;62779.91;;;21.68;56.13
50430;BME280;36359;41.556;-8.418;2024-03-23T10:17:17;62777.75;;;21.66;56.40
50430;BME280;36359;41.556;-8.418;2024-03-23T10:19:50;62795.06;;;21.77;57.06
50430;BME280;36359;41.556;-8.418;2024-03-23T10:22:21;62797.09;;;21.84;55.98
50430;BME280;36359;41.556;-8.418;2024-03-23T10:24:47;62807.41;;;21.91;54.83
50430;BME280;36359;41.556;-8.418;2024-03-23T10:27:21;62813.84;;;21.97;54.96
50430;BME280;36359;41.556;-8.418;2024-03-23T10:29:48;62805.72;;;21.92;54.28
50430;BME280;36359;41.556;-8.418;2024-03-23T10:32:15;62812.19;;;21.98;55.39
50430;BME280;36359;41.556;-8.418;2024-03-23T10:34:42;62828.34;;;22.14;54.88
50430;BME280;36359;41.556;-8.418;2024-03-23T10:37:08;62835.41;;;22.18;53.65
50430;BME280;36359;41.556;-8.418;2024-03-23T10:39:43;62827.84;;;22.11;55.65
50430;BME280;36359;41.556;-8.418;2024-03-23T10:42:09;62847.25;;;22.29;54.72
50430;BME280;36359;41.556;-8.418;2024-03-23T10:44:38;62840.16;;;22.28;54.97
50430;BME280;36359;41.556;-8.418;2024-03-23T10:47:05;62863.34;;;22.47;54.30
50430;BME280;36359;41.556;-8.418;2024-03-23T10:49:35;62868.22;;;22.52;55.13
50430;BME280;36359;41.556;-8.418;2024-03-23T10:52:03;62876.78;;;22.62;53.55
50430;BME280;36359;41.556;-8.418;2024-03-23T10:54:30;62882.22;;;22.65;53.73
50430;BME280;36359;41.556;-8.418;2024-03-23T10:57:41;62905.97;;;22.85;53.51
50430;BME280;36359;41.556;-8.418;2024-03-23T11:00:10;62923.19;;;23.04;51.52
50430;BME280;36359;41.556;-8.418;2024-03-23T11:02:36;62919.84;;;23.06;52.63
50430;BME280;36359;41.556;-8.418;2024-03-23T11:05:03;62942.09;;;23.19;51.21
50430;BME280;36359;41.556;-8.418;2024-03-23T11:07:51;62932.88;;;23.13;50.83
50430;BME280;36359;41.556;-8.418;2024-03-23T11:10:43;62944.75;;;23.24;51.19
50430;BME280;36359;41.556;-8.418;2024-03-23T11:13:22;62937.72;;;23.18;50.28
50430;BME280;36359;41.556;-8.418;2024-03-23T11:15:49;62944.69;;;23.27;51.14
50430;BME280;36359;41.556;-8.418;2024-03-23T11:18:20;62950.72;;;23.27;51.25
50430;BME280;36359;41.556;-8.418;2024-03-23T11:20:46;62959.88;;;23.36;51.07
50430;BME280;36359;41.556;-8.418;2024-03-23T11:23:28;62962.50;;;23.41;51.69
50430;BME280;36359;41.556;-8.418;2024-03-23T11:25:54;62961.41;;;23.43;51.74
50430;BME280;36359;41.556;-8.418;2024-03-23T11:28:20;62974.91;;;23.53;51.56
50430;BME280;36359;41.556;-8.418;2024-03-23T11:30:47;62977.59;;;23.55;50.62
50430;BME280;36359;41.556;-8.418;2024-03-23T11:33:13;62992.72;;;23.70;49.61
50430;BME280;36359;41.556;-8.418;2024-03-23T11:35:39;63001.91;;;23.78;48.70
50430;BME280;36359;41.556;-8.418;2024-03-23T11:40:32;63013.19;;;23.92;49.80
50430;BME280;36359;41.556;-8.418;2024-03-23T11:42:59;63040.19;;;24.15;45.62
50430;BME280;36359;41.556;-8.418;2024-03-23T11:45:26;63054.84;;;24.23;46.74
50430;BME280;36359;41.556;-8.418;2024-03-23T11:48:05;63044.06;;;24.13;46.19
50430;BME280;36359;41.556;-8.418;2024-03-23T11:50:31;63064.44;;;24.38;46.72
50430;BME280;36359;41.556;-8.418;2024-03-23T11:53:07;63071.91;;;24.50;45.69
50430;BME280;36359;41.556;-8.418;2024-03-23T11:55:47;63086.66;;;24.56;45.10
50430;BME280;36359;41.556;-8.418;2024-03-23T11:58:14;63074.75;;;24.47;45.29
50430;BME280;36359;41.556;-8.418;2024-03-23T12:00:40;63104.41;;;24.76;43.44
50430;BME280;36359;41.556;-8.418;2024-03-23T12:03:06;63099.56;;;24.71;43.73
50430;BME280;36359;41.556;-8.418;2024-03-23T12:05:33;63094.69;;;24.66;42.96
50430;BME280;36359;41.556;-8.418;2024-03-23T12:10:49;63108.72;;;24.80;43.00
50430;BME280;36359;41.556;-8.418;2024-03-23T12:13:16;63106.56;;;24.78;44.47
50430;BME280;36359;41.556;-8.418;2024-03-23T12:15:46;63133.56;;;25.03;42.42
50430;BME280;36359;41.556;-8.418;2024-03-23T12:18:13;63152.47;;;25.21;41.73
50430;BME280;36359;41.556;-8.418;2024-03-23T12:20:39;63134.56;;;25.07;43.46
50430;BME280;36359;41.556;-8.418;2024-03-23T12:23:09;63163.25;;;25.31;43.06
50430;BME280;36359;41.556;-8.418;2024-03-23T12:25:38;63153.44;;;25.27;44.34
50430;BME280;36359;41.556;-8.418;2024-03-23T12:28:05;63164.28;;;25.35;42.53
50430;BME280;36359;41.556;-8.418;2024-03-23T12:30:35;63153.00;;;25.22;42.62
50430;BME280;36359;41.556;-8.418;2024-03-23T12:33:02;63149.22;;;25.18;43.77
50430;BME280;36359;41.556;-8.418;2024-03-23T12:35:28;63165.94;;;25.34;42.42
50430;BME280;36359;41.556;-8.418;2024-03-23T12:37:54;63160.56;;;25.29;44.71
50430;BME280;36359;41.556;-8.418;2024-03-23T12:40:20;63160.00;;;25.28;46.43
50430;BME280;36359;41.556;-8.418;2024-03-23T12:42:46;63156.25;;;25.25;45.48
50430;BME280;36359;41.556;-8.418;2024-03-23T12:45:11;63170.25;;;25.38;44.76
50430;BME280;36359;41.556;-8.418;2024-03-23T12:47:37;63185.38;;;25.52;43.03
50430;BME280;36359;41.556;-8.418;2024-03-23T12:50:03;63179.44;;;25.47;44.20
50430;BME280;36359;41.556;-8.418;2024-03-23T12:52:29;63163.31;;;25.29;44.13
50430;BME280;36359;41.556;-8.418;2024-03-23T12:54:55;63164.88;;;25.33;45.08
50430;BME280;36359;41.556;-8.418;2024-03-23T12:57:23;63147.09;;;25.13;44.12
50430;BME280;36359;41.556;-8.418;2024-03-23T12:59:50;63162.72;;;25.31;43.35
50430;BME280;36359;41.556;-8.418;2024-03-23T13:02:21;63150.25;;;25.22;44.06
50430;BME280;36359;41.556;-8.418;2024-03-23T13:04:51;63167.03;;;25.35;43.52
50430;BME280;36359;41.556;-8.418;2024-03-23T13:07:18;63199.97;;;25.66;44.11
50430;BME280;36359;41.556;-8.418;2024-03-23T13:09:44;63200.47;;;25.69;45.23
50430;BME280;36359;41.556;-8.418;2024-03-23T13:12:10;63208.06;;;25.74;43.63
50430;BME280;36359;41.556;-8.418;2024-03-23T13:14:38;63215.06;;;25.83;44.64
50430;BME280;36359;41.556;-8.418;2024-03-23T13:17:05;63231.84;;;25.96;42.63
50430;BME280;36359;41.556;-8.418;2024-03-23T13:19:31;63249.16;;;26.13;42.76
50430;BME280;36359;41.556;-8.418;2024-03-23T13:21:58;63245.28;;;26.12;43.02
50430;BME280;36359;41.556;-8.418;2024-03-23T13:24:28;63242.06;;;26.09;42.98
50430;BME280;36359;41.556;-8.418;2024-03-23T13:26:55;63232.94;;;25.97;43.88
50430;BME280;36359;41.556;-8.418;2024-03-23T13:29:22;63231.25;;;25.98;42.76
50430;BME280;36359;41.556;-8.418;2024-03-23T13:31:49;63233.47;;;25.98;42.77
50430;BME280;36359;41.556;-8.418;2024-03-23T13:34:16;63236.09;;;26.03;42.01
50430;BME280;36359;41.556;-8.418;2024-03-23T13:36:42;63230.19;;;25.97;42.83
50430;BME280;36359;41.556;-8.418;2024-03-23T13:39:09;63231.84;;;25.96;41.98
50430;BME280;36359;41.556;-8.418;2024-03-23T13:44:05;63237.19;;;26.04;43.51
50430;BME280;36359;41.556;-8.418;2024-03-23T13:46:30;63255.13;;;26.16;43.51
50430;BME280;36359;41.556;-8.418;2024-03-23T13:48:56;63254.56;;;26.18;42.81
50430;BME280;36359;41.556;-8.418;2024-03-23T13:51:25;63295.63;;;26.57;42.33
50430;BME280;36359;41.556;-8.418;2024-03-23T13:53:53;63270.75;;;26.33;42.10
50430;BME280;36359;41.556;-8.418;2024-03-23T13:56:20;63273.94;;;26.39;41.73